sensor_id;sensor_type;location;lat;lon;timestamp;temperature;humidity
16968;DHT22;8600;54.338;10.128;2022-09-12T00:01:05;12.60;99.90
16968;DHT22;8600;54.338;10.128;2022-09-12T00:03:32;12.60;99.90
16968;DHT22;8600;54.338;10.128;2022-09-12T00:05:59;12.60;99.90
16968;DHT22;8600;54.338;10.128;2022-09-12T00:08:27;12.60;99.90
16968;DHT22;8600;54.338;10.128;2022-09-12T00:10:54;12.50;99.90
16968;DHT22;8600;54.338;10.128;2022-09-12T00:13:21;12.50;99.90
16968;DHT22;8600;54.338;10.128;2022-09-12T00:15:48;12.50;99.90
16968;DHT22;8600;54.338;10.128;2022-09-12T00:18:15;12.50;99.90
16968;DHT22;8600;54.338;10.128;2022-09-12T00:20:44;12.50;99.90
16968;DHT22;8600;54.338;10.128;2022-09-12T00:23:11;12.50;99.90
16968;DHT22;8600;54.338;10.128;2022-09-12T00:25:43;12.50;99.90
16968;DHT22;8600;54.338;10.128;2022-09-12T00:28:11;12.40;99.90
16968;DHT22;8600;54.338;10.128;2022-09-12T00:30:42;12.40;99.90
16968;DHT22;8600;54.338;10.128;2022-09-12T00:33:10;12.40;99.90
16968;DHT22;8600;54.338;10.128;2022-09-12T00:35:41;12.30;99.90
16968;DHT22;8600;54.338;10.128;2022-09-12T00:38:08;12.30;99.90
16968;DHT22;8600;54.338;10.128;2022-09-12T00:40:35;12.30;99.90
16968;DHT22;8600;54.338;10.128;2022-09-12T00:43:04;12.30;99.90
16968;DHT22;8600;54.338;10.128;2022-09-12T00:45:31;12.10;99.90
16968;DHT22;8600;54.338;10.128;2022-09-12T00:48:01;12.10;99.90
16968;DHT22;8600;54.338;10.128;2022-09-12T00:50:31;12.20;99.90
16968;DHT22;8600;54.338;10.128;2022-09-12T00:53:02;12.20;99.90
16968;DHT22;8600;54.338;10.128;2022-09-12T00:55:34;12.20;99.90
16968;DHT22;8600;54.338;10.128;2022-09-12T00:58:06;12.30;99.90
16968;DHT22;8600;54.338;10.128;2022-09-12T01:00:34;12.30;99.90
16968;DHT22;8600;54.338;10.128;2022-09-12T01:03:04;12.30;99.90
16968;DHT22;8600;54.338;10.128;2022-09-12T01:05:34;12.20;99.90
16968;DHT22;8600;54.338;10.128;2022-09-12T01:08:03;12.20;99.90
16968;DHT22;8600;54.338;10.128;2022-09-12T01:10:33;12.20;99.90
16968;DHT22;8600;54.338;10.128;2022-09-12T01:13:02;12.20;99.90
16968;DHT22;8600;54.338;10.128;2022-09-12T01:15:32;12.20;99.90
16968;DHT22;8600;54.338;10.128;2022-09-12T01:18:08;12.20;99.90
16968;DHT22;8600;54.338;10.128;2022-09-12T01:21:00;12.10;99.90
16968;DHT22;8600;54.338;10.128;2022-09-12T01:27:09;11.90;99.90
16968;DHT22;8600;54.338;10.128;2022-09-12T01:29:57;11.90;99.90
16968;DHT22;8600;54.338;10.128;2022-09-12T01:32:34;11.90;99.90
16968;DHT22;8600;54.338;10.128;2022-09-12T01:35:06;12.00;99.90
16968;DHT22;8600;54.338;10.128;2022-09-12T01:37:46;12.00;99.90
16968;DHT22;8600;54.338;10.128;2022-09-12T01:40:22;12.00;99.90
16968;DHT22;8600;54.338;10.128;2022-09-12T01:42:55;12.00;99.90
16968;DHT22;8600;54.338;10.128;2022-09-12T01:45:29;12.10;99.90
16968;DHT22;8600;54.338;10.128;2022-09-12T01:48:03;12.10;99.90
16968;DHT22;8600;54.338;10.128;2022-09-12T01:50:34;12.00;99.90
16968;DHT22;8600;54.338;10.128;2022-09-12T01:53:07;12.00;99.90
16968;DHT22;8600;54.338;10.128;2022-09-12T01:55:39;12.00;99.90
16968;DHT22;8600;54.338;10.128;2022-09-12T01:58:10;12.00;99.90
16968;DHT22;8600;54.338;10.128;2022-09-12T02:00:46;12.00;99.90
16968;DHT22;8600;54.338;10.128;2022-09-12T02:03:17;12.00;99.90
16968;DHT22;8600;54.338;10.128;2022-09-12T02:05:48;12.00;99.90
16968;DHT22;8600;54.338;10.128;2022-09-12T02:08:19;12.00;99.90
16968;DHT22;8600;54.338;10.128;2022-09-12T02:10:51;12.00;99.90
16968;DHT22;8600;54.338;10.128;2022-09-12T02:13:22;11.90;99.90
16968;DHT22;8600;54.338;10.128;2022-09-12T02:15:53;12.00;99.90
16968;DHT22;8600;54.338;10.128;2022-09-12T02:18:25;12.00;99.90
16968;DHT22;8600;54.338;10.128;2022-09-12T02:20:55;12.00;99.90
16968;DHT22;8600;54.338;10.128;2022-09-12T02:23:26;11.90;99.90
16968;DHT22;8600;54.338;10.128;2022-09-12T02:25:55;11.90;99.90
16968;DHT22;8600;54.338;10.128;2022-09-12T02:28:25;11.90;99.90
16968;DHT22;8600;54.338;10.128;2022-09-12T02:31:00;12.00;99.90
16968;DHT22;8600;54.338;10.128;2022-09-12T02:33:36;12.10;99.90
16968;DHT22;8600;54.338;10.128;2022-09-12T02:36:09;12.10;99.90
16968;DHT22;8600;54.338;10.128;2022-09-12T02:38:43;12.00;99.90
16968;DHT22;8600;54.338;10.128;2022-09-12T02:41:13;11.90;99.90
16968;DHT22;8600;54.338;10.128;2022-09-12T02:43:41;11.90;99.90
16968;DHT22;8600;54.338;10.128;2022-09-12T02:46:12;11.90;99.90
16968;DHT22;8600;54.338;10.128;2022-09-12T02:48:42;12.00;99.90
16968;DHT22;8600;54.338;10.128;2022-09-12T02:51:10;11.90;99.90
16968;DHT22;8600;54.338;10.128;2022-09-12T02:53:37;11.90;99.90
16968;DHT22;8600;54.338;10.128;2022-09-12T02:56:15;11.80;99.90
16968;DHT22;8600;54.338;10.128;2022-09-12T02:58:44;11.80;99.90
16968;DHT22;8600;54.338;10.128;2022-09-12T03:01:17;11.70;99.90
16968;DHT22;8600;54.338;10.128;2022-09-12T03:03:59;11.70;99.90
16968;DHT22;8600;54.338;10.128;2022-09-12T03:06:34;11.70;99.90
16968;DHT22;8600;54.338;10.128;2022-09-12T03:09:09;11.70;99.90
16968;DHT22;8600;54.338;10.128;2022-09-12T03:12:00;11.70;99.90
16968;DHT22;8600;54.338;10.128;2022-09-12T03:14:40;11.70;99.90
16968;DHT22;8600;54.338;10.128;2022-09-12T03:17:15;11.60;99.90
16968;DHT22;8600;54.338;10.128;2022-09-12T03:19:53;11.60;99.90
16968;DHT22;8600;54.338;10.128;2022-09-12T03:22:29;11.60;99.90
16968;DHT22;8600;54.338;10.128;2022-09-12T03:25:02;11.60;99.90
16968;DHT22;8600;54.338;10.128;2022-09-12T03:27:34;11.60;99.90
16968;DHT22;8600;54.338;10.128;2022-09-12T03:30:03;11.60;99.90
16968;DHT22;8600;54.338;10.128;2022-09-12T03:32:40;11.60;99.90
16968;DHT22;8600;54.338;10.128;2022-09-12T03:35:09;11.50;99.90
16968;DHT22;8600;54.338;10.128;2022-09-12T03:37:37;11.60;99.90
16968;DHT22;8600;54.338;10.128;2022-09-12T03:40:05;11.60;99.90
16968;DHT22;8600;54.338;10.128;2022-09-12T03:42:32;11.60;99.90
16968;DHT22;8600;54.338;10.128;2022-09-12T03:44:59;11.60;99.90
16968;DHT22;8600;54.338;10.128;2022-09-12T03:47:26;11.60;99.90
16968;DHT22;8600;54.338;10.128;2022-09-12T03:49:53;11.60;99.90
16968;DHT22;8600;54.338;10.128;2022-09-12T03:52:21;11.70;99.90
16968;DHT22;8600;54.338;10.128;2022-09-12T03:54:48;11.70;99.90
16968;DHT22;8600;54.338;10.128;2022-09-12T03:57:15;11.60;99.90
16968;DHT22;8600;54.338;10.128;2022-09-12T03:59:42;11.60;99.90
16968;DHT22;8600;54.338;10.128;2022-09-12T04:02:09;11.60;99.90
16968;DHT22;8600;54.338;10.128;2022-09-12T04:04:39;11.60;99.90
16968;DHT22;8600;54.338;10.128;2022-09-12T04:07:08;11.50;99.90
16968;DHT22;8600;54.338;10.128;2022-09-12T04:09:36;11.60;99.90
16968;DHT22;8600;54.338;10.128;2022-09-12T04:12:04;11.60;99.90
16968;DHT22;8600;54.338;10.128;2022-09-12T04:14:31;11.60;99.90
16968;DHT22;8600;54.338;10.128;2022-09-12T04:16:58;11.60;99.90
16968;DHT22;8600;54.338;10.128;2022-09-12T04:19:25;11.60;99.90
16968;DHT22;8600;54.338;10.128;2022-09-12T04:21:52;11.60;99.90
16968;DHT22;8600;54.338;10.128;2022-09-12T04:24:19;11.60;99.90
16968;DHT22;8600;54.338;10.128;2022-09-12T04:26:48;11.60;99.90
16968;DHT22;8600;54.338;10.128;2022-09-12T04:29:15;11.60;99.90
16968;DHT22;8600;54.338;10.128;2022-09-12T04:31:42;11.70;99.90
16968;DHT22;8600;54.338;10.128;2022-09-12T04:34:09;11.70;99.90
16968;DHT22;8600;54.338;10.128;2022-09-12T04:36:37;11.70;99.90
16968;DHT22;8600;54.338;10.128;2022-09-12T04:39:04;11.70;99.90
16968;DHT22;8600;54.338;10.128;2022-09-12T04:41:34;11.70;99.90
16968;DHT22;8600;54.338;10.128;2022-09-12T04:44:04;11.70;99.90
16968;DHT22;8600;54.338;10.128;2022-09-12T04:46:34;11.80;99.90
16968;DHT22;8600;54.338;10.128;2022-09-12T04:49:02;11.90;99.90
16968;DHT22;8600;54.338;10.128;2022-09-12T04:51:30;11.90;99.90
16968;DHT22;8600;54.338;10.128;2022-09-12T04:54:00;11.90;99.90
16968;DHT22;8600;54.338;10.128;2022-09-12T04:56:28;12.00;99.90
16968;DHT22;8600;54.338;10.128;2022-09-12T04:58:56;12.10;99.90
16968;DHT22;8600;54.338;10.128;2022-09-12T05:01:25;12.20;99.90
16968;DHT22;8600;54.338;10.128;2022-09-12T05:03:53;12.20;99.90
16968;DHT22;8600;54.338;10.128;2022-09-12T05:06:21;12.20;99.90
16968;DHT22;8600;54.338;10.128;2022-09-12T05:08:50;12.20;99.90
16968;DHT22;8600;54.338;10.128;2022-09-12T05:11:19;12.20;99.90
16968;DHT22;8600;54.338;10.128;2022-09-12T05:13:47;12.20;99.90
16968;DHT22;8600;54.338;10.128;2022-09-12T05:16:16;12.20;99.90
16968;DHT22;8600;54.338;10.128;2022-09-12T05:18:45;12.20;99.90
16968;DHT22;8600;54.338;10.128;2022-09-12T05:21:14;12.20;99.90
16968;DHT22;8600;54.338;10.128;2022-09-12T05:23:41;12.10;99.90
16968;DHT22;8600;54.338;10.128;2022-09-12T05:26:12;12.10;99.90
16968;DHT22;8600;54.338;10.128;2022-09-12T05:28:39;12.10;99.90
16968;DHT22;8600;54.338;10.128;2022-09-12T05:31:07;12.20;99.90
16968;DHT22;8600;54.338;10.128;2022-09-12T05:33:36;12.30;99.90
16968;DHT22;8600;54.338;10.128;2022-09-12T05:36:06;12.40;99.90
16968;DHT22;8600;54.338;10.128;2022-09-12T05:38:34;12.50;99.90
16968;DHT22;8600;54.338;10.128;2022-09-12T05:41:05;12.50;99.90
16968;DHT22;8600;54.338;10.128;2022-09-12T05:43:32;12.60;99.90
16968;DHT22;8600;54.338;10.128;2022-09-12T05:46:00;12.70;99.90
16968;DHT22;8600;54.338;10.128;2022-09-12T05:48:27;12.80;99.90
16968;DHT22;8600;54.338;10.128;2022-09-12T05:50:59;12.80;99.90
16968;DHT22;8600;54.338;10.128;2022-09-12T05:53:29;12.90;99.90
16968;DHT22;8600;54.338;10.128;2022-09-12T05:56:04;13.00;99.90
16968;DHT22;8600;54.338;10.128;2022-09-12T05:58:31;13.00;99.90
16968;DHT22;8600;54.338;10.128;2022-09-12T06:01:03;13.10;99.90
16968;DHT22;8600;54.338;10.128;2022-09-12T06:03:30;13.10;99.90
16968;DHT22;8600;54.338;10.128;2022-09-12T06:06:00;13.10;99.90
16968;DHT22;8600;54.338;10.128;2022-09-12T06:08:28;13.30;99.90
16968;DHT22;8600;54.338;10.128;2022-09-12T06:10:58;13.30;99.90
16968;DHT22;8600;54.338;10.128;2022-09-12T06:13:25;13.50;99.90
16968;DHT22;8600;54.338;10.128;2022-09-12T06:15:52;13.60;99.90
16968;DHT22;8600;54.338;10.128;2022-09-12T06:18:19;13.70;99.90
16968;DHT22;8600;54.338;10.128;2022-09-12T06:20:46;13.80;99.90
16968;DHT22;8600;54.338;10.128;2022-09-12T06:23:13;14.00;99.90
16968;DHT22;8600;54.338;10.128;2022-09-12T06:25:46;14.20;99.90
16968;DHT22;8600;54.338;10.128;2022-09-12T06:28:14;14.30;99.90
16968;DHT22;8600;54.338;10.128;2022-09-12T06:30:41;14.40;99.90
16968;DHT22;8600;54.338;10.128;2022-09-12T06:33:08;14.50;99.90
16968;DHT22;8600;54.338;10.128;2022-09-12T06:35:35;14.80;99.90
16968;DHT22;8600;54.338;10.128;2022-09-12T06:38:03;15.20;99.90
16968;DHT22;8600;54.338;10.128;2022-09-12T06:40:30;15.20;99.90
16968;DHT22;8600;54.338;10.128;2022-09-12T06:42:58;15.30;99.90
16968;DHT22;8600;54.338;10.128;2022-09-12T06:45:31;15.40;99.90
16968;DHT22;8600;54.338;10.128;2022-09-12T06:47:58;15.50;99.90
16968;DHT22;8600;54.338;10.128;2022-09-12T06:50:25;15.70;99.90
16968;DHT22;8600;54.338;10.128;2022-09-12T06:52:52;15.70;99.90
16968;DHT22;8600;54.338;10.128;2022-09-12T06:55:19;15.60;99.90
16968;DHT22;8600;54.338;10.128;2022-09-12T06:57:48;15.50;99.90
16968;DHT22;8600;54.338;10.128;2022-09-12T07:00:16;15.50;99.90
16968;DHT22;8600;54.338;10.128;2022-09-12T07:02:43;15.60;99.90
16968;DHT22;8600;54.338;10.128;2022-09-12T07:05:10;15.60;99.90
16968;DHT22;8600;54.338;10.128;2022-09-12T07:07:38;15.70;99.90
16968;DHT22;8600;54.338;10.128;2022-09-12T07:10:05;15.60;99.90
16968;DHT22;8600;54.338;10.128;2022-09-12T07:12:32;15.70;99.90
16968;DHT22;8600;54.338;10.128;2022-09-12T07:14:59;15.80;99.90
16968;DHT22;8600;54.338;10.128;2022-09-12T07:17:28;15.90;99.90
16968;DHT22;8600;54.338;10.128;2022-09-12T07:19:55;15.70;99.90
16968;DHT22;8600;54.338;10.128;2022-09-12T07:22:22;15.80;99.90
16968;DHT22;8600;54.338;10.128;2022-09-12T07:24:49;15.70;99.90
16968;DHT22;8600;54.338;10.128;2022-09-12T07:27:15;15.90;99.90
16968;DHT22;8600;54.338;10.128;2022-09-12T07:29:42;15.90;99.90
16968;DHT22;8600;54.338;10.128;2022-09-12T07:32:11;16.00;99.90
16968;DHT22;8600;54.338;10.128;2022-09-12T07:34:39;16.10;99.90
16968;DHT22;8600;54.338;10.128;2022-09-12T07:37:06;16.30;99.90
16968;DHT22;8600;54.338;10.128;2022-09-12T07:39:33;16.40;99.90
16968;DHT22;8600;54.338;10.128;2022-09-12T07:42:00;16.50;99.90
16968;DHT22;8600;54.338;10.128;2022-09-12T07:44:27;16.50;99.90
16968;DHT22;8600;54.338;10.128;2022-09-12T07:46:54;16.50;99.90
16968;DHT22;8600;54.338;10.128;2022-09-12T07:49:21;16.60;99.90
16968;DHT22;8600;54.338;10.128;2022-09-12T07:51:50;16.70;99.90
16968;DHT22;8600;54.338;10.128;2022-09-12T07:54:16;16.80;99.90
16968;DHT22;8600;54.338;10.128;2022-09-12T07:56:43;17.00;99.90
16968;DHT22;8600;54.338;10.128;2022-09-12T07:59:10;17.10;99.90
16968;DHT22;8600;54.338;10.128;2022-09-12T08:01:38;17.10;99.90
16968;DHT22;8600;54.338;10.128;2022-09-12T08:04:06;17.20;99.90
16968;DHT22;8600;54.338;10.128;2022-09-12T08:06:33;17.30;99.90
16968;DHT22;8600;54.338;10.128;2022-09-12T08:09:03;17.40;99.90
16968;DHT22;8600;54.338;10.128;2022-09-12T08:11:30;17.40;99.90
16968;DHT22;8600;54.338;10.128;2022-09-12T08:13:57;17.40;99.90
16968;DHT22;8600;54.338;10.128;2022-09-12T08:16:28;17.50;99.90
16968;DHT22;8600;54.338;10.128;2022-09-12T08:18:55;17.50;99.90
16968;DHT22;8600;54.338;10.128;2022-09-12T08:21:24;17.60;99.90
16968;DHT22;8600;54.338;10.128;2022-09-12T08:23:52;17.50;99.90
16968;DHT22;8600;54.338;10.128;2022-09-12T08:26:21;17.40;99.90
16968;DHT22;8600;54.338;10.128;2022-09-12T08:28:48;17.40;99.90
16968;DHT22;8600;54.338;10.128;2022-09-12T08:31:17;17.40;99.90
16968;DHT22;8600;54.338;10.128;2022-09-12T08:33:44;17.50;99.90
16968;DHT22;8600;54.338;10.128;2022-09-12T08:36:12;17.60;99.90
16968;DHT22;8600;54.338;10.128;2022-09-12T08:38:42;17.60;99.90
16968;DHT22;8600;54.338;10.128;2022-09-12T08:41:13;17.70;99.90
16968;DHT22;8600;54.338;10.128;2022-09-12T08:43:56;17.80;99.90
16968;DHT22;8600;54.338;10.128;2022-09-12T08:46:31;17.90;99.90
16968;DHT22;8600;54.338;10.128;2022-09-12T08:49:00;18.00;99.90
16968;DHT22;8600;54.338;10.128;2022-09-12T08:51:28;18.00;99.90
16968;DHT22;8600;54.338;10.128;2022-09-12T08:53:56;18.30;99.90
16968;DHT22;8600;54.338;10.128;2022-09-12T08:56:24;18.20;99.90
16968;DHT22;8600;54.338;10.128;2022-09-12T08:58:53;18.20;99.90
16968;DHT22;8600;54.338;10.128;2022-09-12T09:01:27;18.30;99.90
16968;DHT22;8600;54.338;10.128;2022-09-12T09:04:20;18.20;99.90
16968;DHT22;8600;54.338;10.128;2022-09-12T09:07:03;18.30;99.90
16968;DHT22;8600;54.338;10.128;2022-09-12T09:09:45;18.40;99.90
16968;DHT22;8600;54.338;10.128;2022-09-12T09:12:21;18.60;99.90
16968;DHT22;8600;54.338;10.128;2022-09-12T09:15:05;18.80;99.90
16968;DHT22;8600;54.338;10.128;2022-09-12T09:17:41;19.00;99.90
16968;DHT22;8600;54.338;10.128;2022-09-12T09:20:25;18.90;99.90
16968;DHT22;8600;54.338;10.128;2022-09-12T09:22:57;18.60;99.90
16968;DHT22;8600;54.338;10.128;2022-09-12T09:25:38;18.60;99.90
16968;DHT22;8600;54.338;10.128;2022-09-12T09:28:12;18.80;99.90
16968;DHT22;8600;54.338;10.128;2022-09-12T09:30:43;18.60;99.90
16968;DHT22;8600;54.338;10.128;2022-09-12T09:33:17;18.50;99.90
16968;DHT22;8600;54.338;10.128;2022-09-12T09:35:46;18.60;99.90
16968;DHT22;8600;54.338;10.128;2022-09-12T09:38:22;18.50;99.90
16968;DHT22;8600;54.338;10.128;2022-09-12T09:40:59;18.60;99.90
16968;DHT22;8600;54.338;10.128;2022-09-12T09:43:30;18.90;99.90
16968;DHT22;8600;54.338;10.128;2022-09-12T09:45:58;19.00;99.90
16968;DHT22;8600;54.338;10.128;2022-09-12T09:48:27;19.00;99.90
16968;DHT22;8600;54.338;10.128;2022-09-12T09:50:58;19.20;99.90
16968;DHT22;8600;54.338;10.128;2022-09-12T09:53:36;19.30;99.90
16968;DHT22;8600;54.338;10.128;2022-09-12T09:56:08;19.00;99.90
16968;DHT22;8600;54.338;10.128;2022-09-12T09:58:38;19.00;99.90
16968;DHT22;8600;54.338;10.128;2022-09-12T10:01:13;19.10;99.90
16968;DHT22;8600;54.338;10.128;2022-09-12T10:03:47;19.20;99.90
16968;DHT22;8600;54.338;10.128;2022-09-12T10:06:28;19.20;99.90
16968;DHT22;8600;54.338;10.128;2022-09-12T10:09:18;19.10;99.90
16968;DHT22;8600;54.338;10.128;2022-09-12T10:11:45;19.10;99.90
16968;DHT22;8600;54.338;10.128;2022-09-12T10:14:28;19.20;99.90
16968;DHT22;8600;54.338;10.128;2022-09-12T10:16:57;19.30;99.90
16968;DHT22;8600;54.338;10.128;2022-09-12T10:19:33;19.20;99.90
16968;DHT22;8600;54.338;10.128;2022-09-12T10:22:01;19.20;99.90
16968;DHT22;8600;54.338;10.128;2022-09-12T10:24:33;19.20;99.90
16968;DHT22;8600;54.338;10.128;2022-09-12T10:27:13;19.70;99.90
16968;DHT22;8600;54.338;10.128;2022-09-12T10:29:42;19.50;99.90
16968;DHT22;8600;54.338;10.128;2022-09-12T10:32:23;19.60;99.90
16968;DHT22;8600;54.338;10.128;2022-09-12T10:34:57;19.40;99.90
16968;DHT22;8600;54.338;10.128;2022-09-12T10:37:29;19.30;99.90
16968;DHT22;8600;54.338;10.128;2022-09-12T10:39:58;19.20;99.90
16968;DHT22;8600;54.338;10.128;2022-09-12T10:42:44;19.40;99.90
16968;DHT22;8600;54.338;10.128;2022-09-12T10:45:24;19.70;99.90
16968;DHT22;8600;54.338;10.128;2022-09-12T10:47:53;19.80;99.90
16968;DHT22;8600;54.338;10.128;2022-09-12T10:50:25;19.80;99.90
16968;DHT22;8600;54.338;10.128;2022-09-12T10:52:53;19.70;99.90
16968;DHT22;8600;54.338;10.128;2022-09-12T10:55:26;19.80;99.90
16968;DHT22;8600;54.338;10.128;2022-09-12T10:57:58;20.00;99.90
16968;DHT22;8600;54.338;10.128;2022-09-12T11:00:27;20.10;99.90
16968;DHT22;8600;54.338;10.128;2022-09-12T11:03:04;20.30;99.90
16968;DHT22;8600;54.338;10.128;2022-09-12T11:05:50;20.20;99.90
16968;DHT22;8600;54.338;10.128;2022-09-12T11:08:39;20.30;99.90
16968;DHT22;8600;54.338;10.128;2022-09-12T11:11:11;20.40;99.90
16968;DHT22;8600;54.338;10.128;2022-09-12T11:13:58;20.30;99.90
16968;DHT22;8600;54.338;10.128;2022-09-12T11:16:36;20.20;99.90
16968;DHT22;8600;54.338;10.128;2022-09-12T11:19:32;20.00;99.90
16968;DHT22;8600;54.338;10.128;2022-09-12T11:22:13;20.00;99.90
16968;DHT22;8600;54.338;10.128;2022-09-12T11:25:11;20.00;99.90
16968;DHT22;8600;54.338;10.128;2022-09-12T11:27:49;20.00;99.90
16968;DHT22;8600;54.338;10.128;2022-09-12T11:30:19;20.00;99.90
16968;DHT22;8600;54.338;10.128;2022-09-12T11:33:02;20.10;99.90
16968;DHT22;8600;54.338;10.128;2022-09-12T11:35:34;20.00;99.90
16968;DHT22;8600;54.338;10.128;2022-09-12T11:38:21;20.40;99.90
16968;DHT22;8600;54.338;10.128;2022-09-12T11:40:53;20.60;99.90
16968;DHT22;8600;54.338;10.128;2022-09-12T11:43:36;20.60;99.90
16968;DHT22;8600;54.338;10.128;2022-09-12T11:46:12;20.70;99.90
16968;DHT22;8600;54.338;10.128;2022-09-12T11:48:46;20.60;99.90
16968;DHT22;8600;54.338;10.128;2022-09-12T11:51:18;20.40;99.90
16968;DHT22;8600;54.338;10.128;2022-09-12T11:53:54;20.40;99.90
16968;DHT22;8600;54.338;10.128;2022-09-12T11:56:24;20.20;99.90
16968;DHT22;8600;54.338;10.128;2022-09-12T11:58:54;20.00;99.90
16968;DHT22;8600;54.338;10.128;2022-09-12T12:01:26;20.00;99.90
16968;DHT22;8600;54.338;10.128;2022-09-12T12:03:53;20.20;99.90
16968;DHT22;8600;54.338;10.128;2022-09-12T12:06:29;20.40;99.90
16968;DHT22;8600;54.338;10.128;2022-09-12T12:08:57;20.40;99.90
16968;DHT22;8600;54.338;10.128;2022-09-12T12:11:28;20.40;99.90
16968;DHT22;8600;54.338;10.128;2022-09-12T12:13:58;20.40;99.90
16968;DHT22;8600;54.338;10.128;2022-09-12T12:16:27;20.50;99.90
16968;DHT22;8600;54.338;10.128;2022-09-12T12:18:55;20.60;99.90
16968;DHT22;8600;54.338;10.128;2022-09-12T12:21:34;20.40;99.90
16968;DHT22;8600;54.338;10.128;2022-09-12T12:24:16;20.20;99.90
16968;DHT22;8600;54.338;10.128;2022-09-12T12:26:54;20.30;99.90
16968;DHT22;8600;54.338;10.128;2022-09-12T12:29:41;20.30;99.90
16968;DHT22;8600;54.338;10.128;2022-09-12T12:32:26;20.40;99.90
16968;DHT22;8600;54.338;10.128;2022-09-12T12:38:01;20.50;99.90
16968;DHT22;8600;54.338;10.128;2022-09-12T12:40:29;20.80;99.90
16968;DHT22;8600;54.338;10.128;2022-09-12T12:43:02;20.90;99.90
16968;DHT22;8600;54.338;10.128;2022-09-12T12:46:00;20.80;99.90
16968;DHT22;8600;54.338;10.128;2022-09-12T12:48:31;20.80;99.90
16968;DHT22;8600;54.338;10.128;2022-09-12T12:51:22;20.90;99.90
16968;DHT22;8600;54.338;10.128;2022-09-12T12:53:53;21.10;99.90
16968;DHT22;8600;54.338;10.128;2022-09-12T12:56:34;21.10;99.90
16968;DHT22;8600;54.338;10.128;2022-09-12T12:59:03;21.30;99.90
16968;DHT22;8600;54.338;10.128;2022-09-12T13:01:32;21.50;99.90
16968;DHT22;8600;54.338;10.128;2022-09-12T13:04:12;21.20;99.90
16968;DHT22;8600;54.338;10.128;2022-09-12T13:06:42;21.30;99.90
16968;DHT22;8600;54.338;10.128;2022-09-12T13:09:19;21.40;99.90
16968;DHT22;8600;54.338;10.128;2022-09-12T13:11:56;21.40;99.90
16968;DHT22;8600;54.338;10.128;2022-09-12T13:17:27;21.30;99.90
16968;DHT22;8600;54.338;10.128;2022-09-12T13:20:04;21.30;99.90
16968;DHT22;8600;54.338;10.128;2022-09-12T13:22:40;21.10;99.90
16968;DHT22;8600;54.338;10.128;2022-09-12T13:25:21;21.00;99.90
16968;DHT22;8600;54.338;10.128;2022-09-12T13:27:59;21.10;99.90
16968;DHT22;8600;54.338;10.128;2022-09-12T13:30:27;21.30;99.90
16968;DHT22;8600;54.338;10.128;2022-09-12T13:32:57;21.20;99.90
16968;DHT22;8600;54.338;10.128;2022-09-12T13:35:36;21.30;99.90
16968;DHT22;8600;54.338;10.128;2022-09-12T13:38:10;21.30;99.90
16968;DHT22;8600;54.338;10.128;2022-09-12T13:40:54;21.50;99.90
16968;DHT22;8600;54.338;10.128;2022-09-12T13:43:34;21.50;99.90
16968;DHT22;8600;54.338;10.128;2022-09-12T13:46:02;21.30;99.90
16968;DHT22;8600;54.338;10.128;2022-09-12T13:48:29;21.30;99.90
16968;DHT22;8600;54.338;10.128;2022-09-12T13:50:58;21.50;99.90
16968;DHT22;8600;54.338;10.128;2022-09-12T13:53:29;21.50;99.90
16968;DHT22;8600;54.338;10.128;2022-09-12T13:55:59;21.30;99.90
16968;DHT22;8600;54.338;10.128;2022-09-12T13:58:27;21.30;99.90
16968;DHT22;8600;54.338;10.128;2022-09-12T14:01:04;21.20;99.90
16968;DHT22;8600;54.338;10.128;2022-09-12T14:03:33;21.20;99.90
16968;DHT22;8600;54.338;10.128;2022-09-12T14:06:17;21.40;99.90
16968;DHT22;8600;54.338;10.128;2022-09-12T14:08:45;21.10;99.90
16968;DHT22;8600;54.338;10.128;2022-09-12T14:11:23;21.30;99.90
16968;DHT22;8600;54.338;10.128;2022-09-12T14:13:52;21.40;99.90
16968;DHT22;8600;54.338;10.128;2022-09-12T14:16:21;21.60;99.90
16968;DHT22;8600;54.338;10.128;2022-09-12T14:18:49;21.60;99.90
16968;DHT22;8600;54.338;10.128;2022-09-12T14:21:29;21.50;99.90
16968;DHT22;8600;54.338;10.128;2022-09-12T14:23:59;21.70;99.90
16968;DHT22;8600;54.338;10.128;2022-09-12T14:26:28;21.90;99.90
16968;DHT22;8600;54.338;10.128;2022-09-12T14:28:58;21.70;99.90
16968;DHT22;8600;54.338;10.128;2022-09-12T14:31:29;21.50;99.90
16968;DHT22;8600;54.338;10.128;2022-09-12T14:34:08;21.50;99.90
16968;DHT22;8600;54.338;10.128;2022-09-12T14:36:39;21.50;99.90
16968;DHT22;8600;54.338;10.128;2022-09-12T14:39:20;21.50;99.90
16968;DHT22;8600;54.338;10.128;2022-09-12T14:41:50;21.50;99.90
16968;DHT22;8600;54.338;10.128;2022-09-12T14:44:26;21.50;99.90
16968;DHT22;8600;54.338;10.128;2022-09-12T14:46:54;21.60;99.90
16968;DHT22;8600;54.338;10.128;2022-09-12T14:49:26;21.60;99.90
16968;DHT22;8600;54.338;10.128;2022-09-12T14:51:56;21.60;99.90
16968;DHT22;8600;54.338;10.128;2022-09-12T14:54:35;21.60;99.90
16968;DHT22;8600;54.338;10.128;2022-09-12T14:57:13;21.70;99.90
16968;DHT22;8600;54.338;10.128;2022-09-12T14:59:43;21.60;99.90
16968;DHT22;8600;54.338;10.128;2022-09-12T15:02:25;21.60;99.90
16968;DHT22;8600;54.338;10.128;2022-09-12T15:04:54;21.30;99.90
16968;DHT22;8600;54.338;10.128;2022-09-12T15:07:29;21.10;99.90
16968;DHT22;8600;54.338;10.128;2022-09-12T15:09:57;21.10;99.90
16968;DHT22;8600;54.338;10.128;2022-09-12T15:12:26;21.20;99.90
16968;DHT22;8600;54.338;10.128;2022-09-12T15:14:55;21.30;99.90
16968;DHT22;8600;54.338;10.128;2022-09-12T15:17:24;21.30;99.90
16968;DHT22;8600;54.338;10.128;2022-09-12T15:19:51;21.40;99.90
16968;DHT22;8600;54.338;10.128;2022-09-12T15:22:19;21.30;99.90
16968;DHT22;8600;54.338;10.128;2022-09-12T15:24:47;21.20;99.90
16968;DHT22;8600;54.338;10.128;2022-09-12T15:27:14;21.30;99.90
16968;DHT22;8600;54.338;10.128;2022-09-12T15:29:42;21.20;99.90
16968;DHT22;8600;54.338;10.128;2022-09-12T15:32:13;21.20;99.90
16968;DHT22;8600;54.338;10.128;2022-09-12T15:34:48;21.20;99.90
16968;DHT22;8600;54.338;10.128;2022-09-12T15:37:15;21.10;99.90
16968;DHT22;8600;54.338;10.128;2022-09-12T15:39:42;21.10;99.90
16968;DHT22;8600;54.338;10.128;2022-09-12T15:42:11;21.00;99.90
16968;DHT22;8600;54.338;10.128;2022-09-12T15:44:39;21.00;99.90
16968;DHT22;8600;54.338;10.128;2022-09-12T15:47:07;21.00;99.90
16968;DHT22;8600;54.338;10.128;2022-09-12T15:49:36;20.90;99.90
16968;DHT22;8600;54.338;10.128;2022-09-12T15:52:03;20.90;99.90
16968;DHT22;8600;54.338;10.128;2022-09-12T15:54:29;20.90;99.90
16968;DHT22;8600;54.338;10.128;2022-09-12T15:56:56;20.80;99.90
16968;DHT22;8600;54.338;10.128;2022-09-12T15:59:24;20.80;99.90
16968;DHT22;8600;54.338;10.128;2022-09-12T16:01:50;20.80;99.90
16968;DHT22;8600;54.338;10.128;2022-09-12T16:04:21;20.70;99.90
16968;DHT22;8600;54.338;10.128;2022-09-12T16:06:48;20.60;99.90